Time;durP1;ratioP1;P1;durP2;ratioP2;P2;SDS_P1;SDS_P2;PMS_P1;PMS_P2;Temp;Humidity;BMP_temperature;BMP_pressure;BME280_temperature;BME280_humidity;BME280_pressure;Samples;Min_cycle;Max_cycle;Signal;HPM_P1;HPM_P2
2024/01/13 00:01:38;;;;;;;8.93;2.90;;;;;;;1.09;100.00;102315.75;4988413;28;20038;-72
2024/01/13 00:04:04;;;;;;;8.07;2.53;;;;;;;1.08;100.00;102310.63;4946438;28;20041;-72
2024/01/13 00:06:29;;;;;;;5.18;2.22;;;;;;;1.08;100.00;102307.97;4987873;28;20040;-74
2024/01/13 00:08:56;;;;;;;7.97;2.33;;;;;;;1.09;100.00;102301.75;4990259;28;20034;-73
2024/01/13 00:11:21;;;;;;;6.32;2.08;;;;;;;1.09;100.00;102307.00;4970829;28;20521;-73
2024/01/13 00:13:47;;;;;;;7.15;2.67;;;;;;;1.13;100.00;102310.13;4983059;28;20035;-73
2024/01/13 00:16:13;;;;;;;6.43;2.05;;;;;;;1.13;100.00;102295.13;4982087;28;20305;-73
2024/01/13 00:19:03;;;;;;;5.45;2.50;;;;;;;1.16;100.00;102296.59;5005982;28;20033;-73
2024/01/13 00:21:29;;;;;;;6.57;2.42;;;;;;;1.19;100.00;102294.44;4977126;28;20062;-69
2024/01/13 00:23:56;;;;;;;4.38;2.40;;;;;;;1.21;100.00;102288.97;4983203;28;20037;-69
2024/01/13 00:26:22;;;;;;;8.75;2.30;;;;;;;1.17;100.00;102280.59;4972456;28;20302;-69
2024/01/13 00:28:48;;;;;;;4.10;2.22;;;;;;;1.09;100.00;102270.06;4963209;28;20045;-69
2024/01/13 00:31:13;;;;;;;7.53;2.47;;;;;;;1.09;100.00;102278.00;4982361;28;20034;-70
2024/01/13 00:33:43;;;;;;;6.22;2.30;;;;;;;1.09;100.00;102280.63;4962566;28;20030;-70
2024/01/13 00:36:10;;;;;;;4.95;2.20;;;;;;;1.09;100.00;102270.06;4934324;28;20133;-69
2024/01/13 00:38:35;;;;;;;;;;;;;;;1.12;100.00;102268.91;4971324;28;20049;-68
2024/01/13 00:41:03;;;;;;;5.65;1.88;;;;;;;1.11;100.00;102269.91;4963424;28;19917;-69
2024/01/13 00:43:29;;;;;;;4.65;1.98;;;;;;;1.12;100.00;102264.44;4984306;28;20133;-68
2024/01/13 00:45:54;;;;;;;5.50;1.95;;;;;;;1.11;100.00;102265.44;4977042;28;20033;-69
2024/01/13 00:48:20;;;;;;;6.63;2.45;;;;;;;1.14;100.00;102259.81;4988137;28;20101;-70
2024/01/13 00:50:45;;;;;;;7.75;2.72;;;;;;;1.16;100.00;102262.31;4989065;28;20415;-69
2024/01/13 00:53:11;;;;;;;6.40;3.13;;;;;;;1.17;100.00;102250.75;4987577;28;20057;-70
2024/01/13 00:55:37;;;;;;;11.07;2.63;;;;;;;1.15;100.00;102240.34;4972461;28;20069;-70
2024/01/13 00:58:03;;;;;;;9.98;2.50;;;;;;;1.12;100.00;102237.25;4986699;28;20121;-69
2024/01/13 01:00:29;;;;;;;5.75;2.20;;;;;;;1.13;100.00;102236.25;4972994;28;20562;-70
2024/01/13 01:02:54;;;;;;;4.28;2.22;;;;;;;1.13;100.00;102236.25;4973760;28;20045;-71
2024/01/13 01:05:20;;;;;;;8.10;2.70;;;;;;;1.12;100.00;102235.41;4954065;28;20034;-70
2024/01/13 01:07:47;;;;;;;6.68;2.80;;;;;;;1.12;100.00;102227.50;4995577;28;20033;-70
2024/01/13 01:10:13;;;;;;;9.55;2.70;;;;;;;1.10;100.00;102221.59;4990741;28;20609;-69
2024/01/13 01:12:39;;;;;;;6.45;2.50;;;;;;;1.06;100.00;102215.81;4959526;28;20034;-70
2024/01/13 01:15:05;;;;;;;5.70;2.33;;;;;;;1.05;100.00;102219.44;4988558;28;20109;-69
2024/01/13 01:17:31;;;;;;;12.73;3.10;;;;;;;1.07;100.00;102211.34;4934793;28;20045;-70
2024/01/13 01:19:57;;;;;;;8.68;2.80;;;;;;;1.06;100.00;102213.16;4970728;28;20041;-69
2024/01/13 01:22:22;;;;;;;9.38;2.90;;;;;;;1.08;100.00;102210.34;4972168;28;20554;-69
2024/01/13 01:24:48;;;;;;;7.90;3.22;;;;;;;1.09;100.00;102201.47;4971404;28;20038;-69
2024/01/13 01:27:14;;;;;;;8.40;3.00;;;;;;;1.10;100.00;102200.47;4972322;28;20089;-69
2024/01/13 01:29:40;;;;;;;9.73;3.17;;;;;;;1.12;100.00;102195.84;4984370;28;20120;-67
2024/01/13 01:32:05;;;;;;;5.65;2.20;;;;;;;1.14;100.00;102201.75;4968055;28;20041;-68
2024/01/13 01:34:31;;;;;;;9.43;2.13;;;;;;;1.15;100.00;102198.13;4983592;28;20042;-69
2024/01/13 01:36:56;;;;;;;5.65;2.25;;;;;;;1.15;100.00;102187.56;4988517;28;20978;-69
2024/01/13 01:39:22;;;;;;;10.18;2.33;;;;;;;1.15;100.00;102189.38;4987912;28;20038;-70
2024/01/13 01:41:48;;;;;;;12.57;3.47;;;;;;;1.15;100.00;102190.22;4948040;28;20494;-69
2024/01/13 01:44:13;;;;;;;7.93;2.15;;;;;;;1.14;100.00;102185.94;4971903;28;20954;-69
2024/01/13 01:46:41;;;;;;;8.20;2.80;;;;;;;1.11;100.00;102186.28;4984743;28;20095;-70
2024/01/13 01:49:10;;;;;;;10.73;2.70;;;;;;;1.13;100.00;102180.81;4967253;28;20137;-70
2024/01/13 01:51:36;;;;;;;10.68;2.50;;;;;;;1.13;100.00;102184.28;4984157;28;20137;-70
2024/01/13 01:54:01;;;;;;;4.13;2.10;;;;;;;1.14;100.00;102172.72;4968075;28;20042;-70
2024/01/13 01:56:29;;;;;;;10.88;2.85;;;;;;;1.12;100.00;102174.72;4952909;28;20045;-70
2024/01/13 01:58:55;;;;;;;7.00;2.70;;;;;;;1.16;100.00;102170.75;4968583;28;20045;-68
2024/01/13 02:01:22;;;;;;;9.30;2.35;;;;;;;1.18;100.00;102160.84;4968152;28;20038;-70
2024/01/13 02:03:48;;;;;;;7.95;2.65;;;;;;;1.21;100.00;102160.50;4972150;28;20038;-69
2024/01/13 02:06:14;;;;;;;6.40;2.30;;;;;;;1.19;100.00;102162.50;4989896;28;20832;-70
2024/01/13 02:08:40;;;;;;;5.88;1.83;;;;;;;1.17;100.00;102172.41;4992781;28;20042;-70
2024/01/13 02:11:07;;;;;;;11.20;2.45;;;;;;;1.15;100.00;102165.63;4973095;28;20049;-69
2024/01/13 02:13:32;;;;;;;12.13;2.70;;;;;;;1.15;100.00;102161.19;4957435;28;20030;-70
2024/01/13 02:15:59;;;;;;;6.45;2.97;;;;;;;1.15;100.00;102150.63;4967516;28;20034;-69
2024/01/13 02:18:24;;;;;;;6.88;2.70;;;;;;;1.17;100.00;102146.00;4983804;28;20250;-69
2024/01/13 02:20:50;;;;;;;7.80;2.53;;;;;;;1.19;100.00;102144.03;4987858;28;20451;-68
2024/01/13 02:23:16;;;;;;;6.82;2.58;;;;;;;1.17;100.00;102137.28;4987461;28;20049;-68
2024/01/13 02:25:41;;;;;;;8.52;2.55;;;;;;;1.20;100.00;102127.19;4984471;28;20080;-69
2024/01/13 02:28:07;;;;;;;7.15;2.97;;;;;;;1.24;100.00;102130.31;4967802;28;20069;-70
2024/01/13 02:30:33;;;;;;;8.15;2.35;;;;;;;1.25;100.00;102130.13;4988306;28;20088;-69
2024/01/13 02:32:59;;;;;;;10.52;3.25;;;;;;;1.26;100.00;102126.50;4967406;28;20038;-69
2024/01/13 02:35:24;;;;;;;7.50;2.25;;;;;;;1.25;100.00;102124.84;4966244;28;20801;-70
2024/01/13 02:37:50;;;;;;;9.55;3.25;;;;;;;1.24;100.00;102120.56;4966605;28;20049;-70
2024/01/13 02:40:16;;;;;;;7.00;2.47;;;;;;;1.24;100.00;102114.47;4986027;28;20514;-70
2024/01/13 02:42:42;;;;;;;9.20;2.47;;;;;;;1.21;100.00;102118.28;4983480;28;20514;-70
2024/01/13 02:45:08;;;;;;;5.30;2.42;;;;;;;1.23;100.00;102110.19;4964681;28;20057;-69
2024/01/13 02:47:58;;;;;;;7.40;2.50;;;;;;;1.24;100.00;102112.66;4982210;28;20046;-70
2024/01/13 02:50:24;;;;;;;8.40;2.95;;;;;;;1.28;100.00;102102.56;4967076;28;20061;-69
2024/01/13 02:52:51;;;;;;;7.38;2.90;;;;;;;1.25;100.00;102106.38;4974926;28;20030;-69
2024/01/13 02:55:17;;;;;;;7.55;3.10;;;;;;;1.25;100.00;102097.66;4983129;28;20535;-69
2024/01/13 02:57:43;;;;;;;9.30;2.83;;;;;;;1.24;100.00;102091.53;4965914;28;20042;-68
2024/01/13 03:00:09;;;;;;;13.48;3.55;;;;;;;1.24;100.00;102078.34;4980598;28;20093;-67
2024/01/13 03:02:35;;;;;;;10.57;3.08;;;;;;;1.25;100.00;102087.91;4954651;28;20038;-68
2024/01/13 03:05:01;;;;;;;9.10;3.33;;;;;;;1.23;100.00;102071.44;4988366;28;20496;-69
2024/01/13 03:07:27;;;;;;;11.52;3.60;;;;;;;1.25;100.00;102072.06;4970919;28;20061;-69
2024/01/13 03:09:53;;;;;;;11.77;4.00;;;;;;;1.24;100.00;102059.88;4966424;28;20135;-69
2024/01/13 03:12:19;;;;;;;9.90;3.67;;;;;;;1.27;100.00;102062.16;4968298;28;20065;-68
2024/01/13 03:14:46;;;;;;;8.93;3.50;;;;;;;1.29;100.00;102051.44;4946198;28;20193;-67
2024/01/13 03:17:11;;;;;;;13.30;4.05;;;;;;;1.31;100.00;102044.97;4984694;28;20026;-68
2024/01/13 03:19:37;;;;;;;10.90;3.70;;;;;;;1.34;100.00;102049.06;4970047;28;20100;-69
2024/01/13 03:22:03;;;;;;;9.38;3.65;;;;;;;1.34;100.00;102047.25;4966709;28;20295;-68
2024/01/13 03:24:29;;;;;;;10.70;3.45;;;;;;;1.39;100.00;102043.28;4967457;28;20042;-69
2024/01/13 03:26:55;;;;;;;8.32;3.60;;;;;;;1.36;100.00;102037.34;4960239;28;20043;-69
2024/01/13 03:29:20;;;;;;;9.10;3.65;;;;;;;1.36;100.00;102029.44;4980397;28;20026;-69
2024/01/13 03:31:46;;;;;;;8.40;3.15;;;;;;;1.38;100.00;102029.25;4962637;28;20427;-69
2024/01/13 03:34:11;;;;;;;9.32;3.17;;;;;;;1.37;100.00;102022.34;4947166;28;20765;-69
2024/01/13 03:36:37;;;;;;;11.30;3.85;;;;;;;1.39;100.00;102022.16;4961694;28;20610;-70
2024/01/13 03:39:03;;;;;;;7.97;3.33;;;;;;;1.39;100.00;102033.53;4983085;28;20216;-70
2024/01/13 03:41:29;;;;;;;8.13;2.75;;;;;;;1.40;100.00;102031.72;4968060;28;20027;-70
2024/01/13 03:43:57;;;;;;;8.45;2.78;;;;;;;1.39;100.00;102022.97;4983950;28;20086;-68
2024/01/13 03:46:23;;;;;;;6.82;2.78;;;;;;;1.40;100.00;102021.16;4988939;28;20044;-70
2024/01/13 03:48:48;;;;;;;7.88;3.20;;;;;;;1.41;100.00;102014.88;4964972;28;20035;-68
2024/01/13 03:51:16;;;;;;;5.70;2.70;;;;;;;1.39;100.00;102014.22;4989861;28;20065;-70
2024/01/13 03:53:42;;;;;;;8.35;3.03;;;;;;;1.35;100.00;102011.97;4949766;28;20412;-70
2024/01/13 03:56:08;;;;;;;5.68;2.55;;;;;;;1.33;100.00;102019.22;4987801;28;20526;-69
2024/01/13 03:58:38;;;;;;;5.93;3.00;;;;;;;1.31;100.00;102010.66;4965579;28;20038;-69
2024/01/13 04:01:04;;;;;;;6.05;3.10;;;;;;;1.33;100.00;102013.94;4968842;28;20766;-69
2024/01/13 04:03:29;;;;;;;5.82;2.38;;;;;;;1.32;100.00;102024.69;4969097;28;20134;-70
2024/01/13 04:05:56;;;;;;;5.97;2.47;;;;;;;1.31;100.00;102023.88;4985837;28;20034;-69
2024/01/13 04:08:22;;;;;;;6.93;2.90;;;;;;;1.30;100.00;102014.31;4968152;28;20220;-69
2024/01/13 04:10:47;;;;;;;6.95;2.53;;;;;;;1.32;100.00;102014.13;4985626;28;20133;-69
2024/01/13 04:13:14;;;;;;;6.80;2.83;;;;;;;1.31;100.00;102008.03;4969374;28;20133;-69
2024/01/13 04:15:40;;;;;;;;;;;;;;;1.30;100.00;102006.38;4971146;28;20038;-68
2024/01/13 04:18:06;;;;;;;5.55;3.20;;;;;;;1.26;100.00;101999.81;4986497;28;19918;-69
2024/01/13 04:20:32;;;;;;;6.85;3.03;;;;;;;1.26;100.00;102005.09;4976411;28;20087;-69
2024/01/13 04:22:58;;;;;;;9.75;3.50;;;;;;;1.25;100.00;101997.34;4956273;28;20038;-68
2024/01/13 04:25:23;;;;;;;7.55;2.83;;;;;;;1.23;100.00;102002.81;4959662;28;20037;-69
2024/01/13 04:27:52;;;;;;;6.30;2.60;;;;;;;1.25;100.00;101992.06;4988520;28;20069;-69
2024/01/13 04:30:18;;;;;;;6.07;2.80;;;;;;;1.32;100.00;101999.09;4985187;28;20138;-69
2024/01/13 04:32:44;;;;;;;7.57;2.85;;;;;;;1.32;100.00;101995.66;4980096;28;20065;-69
2024/01/13 04:35:11;;;;;;;8.95;3.15;;;;;;;1.30;100.00;101998.47;4986423;28;20770;-69
2024/01/13 04:37:38;;;;;;;6.95;2.80;;;;;;;1.31;100.00;101986.91;4954613;28;20093;-69
2024/01/13 04:40:04;;;;;;;6.43;3.17;;;;;;;1.28;100.00;101989.88;4986934;28;20038;-69
2024/01/13 04:42:31;;;;;;;7.20;2.75;;;;;;;1.28;100.00;101981.97;4973397;28;20053;-69
2024/01/13 04:44:57;;;;;;;7.32;3.03;;;;;;;1.26;100.00;101986.63;4988326;28;20119;-69
2024/01/13 04:47:24;;;;;;;8.18;2.60;;;;;;;1.28;100.00;101974.06;4971021;28;20146;-68
2024/01/13 04:49:50;;;;;;;5.88;2.50;;;;;;;1.30;100.00;101963.34;4988163;28;20030;-68
2024/01/13 04:52:16;;;;;;;6.47;3.38;;;;;;;1.32;100.00;101963.97;4970560;28;20038;-68
2024/01/13 04:54:41;;;;;;;6.55;2.88;;;;;;;1.29;100.00;101965.16;4971455;28;20071;-69
2024/01/13 04:57:07;;;;;;;6.53;2.97;;;;;;;1.27;100.00;101961.88;4986253;28;20550;-69
2024/01/13 04:59:33;;;;;;;5.95;2.28;;;;;;;1.29;100.00;101961.72;4970291;28;21403;-69
2024/01/13 05:01:58;;;;;;;6.63;2.53;;;;;;;1.26;100.00;101960.22;4970328;28;20034;-69
2024/01/13 05:04:24;;;;;;;6.82;2.80;;;;;;;1.26;100.00;101959.41;4987332;28;20038;-70
2024/01/13 05:06:50;;;;;;;5.68;2.60;;;;;;;1.28;100.00;101950.31;4969499;28;20438;-69
2024/01/13 05:09:15;;;;;;;6.88;2.45;;;;;;;1.30;100.00;101950.16;4969454;28;20038;-68
2024/01/13 05:11:41;;;;;;;4.93;2.20;;;;;;;1.28;100.00;101945.03;4953584;28;20061;-69
2024/01/13 05:14:07;;;;;;;8.23;2.72;;;;;;;1.28;100.00;101939.75;4974798;28;20093;-69
2024/01/13 05:16:32;;;;;;;4.60;2.40;;;;;;;1.30;100.00;101937.78;4986838;28;20092;-70
2024/01/13 05:18:58;;;;;;;4.85;2.53;;;;;;;1.31;100.00;101938.59;4986428;28;20045;-69
2024/01/13 05:21:24;;;;;;;4.03;2.05;;;;;;;1.31;100.00;101923.56;4989291;28;20038;-69
2024/01/13 05:23:50;;;;;;;5.45;2.28;;;;;;;1.34;100.00;101923.19;4971203;28;20570;-69
2024/01/13 05:26:15;;;;;;;4.85;1.90;;;;;;;1.35;100.00;101922.22;4971891;28;20039;-69
2024/01/13 05:28:41;;;;;;;4.43;2.03;;;;;;;1.34;100.00;101912.63;4963923;28;20045;-69
2024/01/13 05:31:07;;;;;;;4.95;2.50;;;;;;;1.32;100.00;101919.09;4986991;28;20508;-70
2024/01/13 05:33:33;;;;;;;5.50;2.30;;;;;;;1.30;100.00;101906.09;4983227;28;20034;-70
2024/01/13 05:35:58;;;;;;;3.88;2.20;;;;;;;1.30;100.00;101911.38;4987094;28;20647;-68
2024/01/13 05:38:24;;;;;;;4.20;2.00;;;;;;;1.30;100.00;101895.53;4986494;28;20500;-68
2024/01/13 05:40:49;;;;;;;4.30;2.20;;;;;;;1.32;100.00;101895.34;4953799;28;20043;-70
2024/01/13 05:43:15;;;;;;;3.75;2.10;;;;;;;1.34;100.00;101880.16;4986964;28;20061;-67
2024/01/13 05:45:41;;;;;;;4.15;1.85;;;;;;;1.34;100.00;101875.69;4981361;28;20046;-69
2024/01/13 05:48:07;;;;;;;5.45;2.47;;;;;;;1.32;100.00;101877.69;4986100;28;20041;-69
2024/01/13 05:50:33;;;;;;;4.90;2.25;;;;;;;1.35;100.00;101880.00;4990929;28;20049;-68
2024/01/13 05:52:59;;;;;;;;;;;;;;;1.34;100.00;101886.25;4989729;28;20034;-68
2024/01/13 05:55:24;;;;;;;4.93;1.95;;;;;;;1.40;100.00;101883.88;4969478;28;19968;-69
2024/01/13 05:57:50;;;;;;;4.50;2.10;;;;;;;1.37;100.00;101879.81;4985379;28;20125;-69
2024/01/13 06:00:16;;;;;;;4.35;1.98;;;;;;;1.36;100.00;101879.00;4971118;28;20575;-70
2024/01/13 06:02:43;;;;;;;7.85;2.50;;;;;;;1.41;100.00;101867.03;4989657;28;20034;-69
2024/01/13 06:05:09;;;;;;;6.03;3.20;;;;;;;1.42;100.00;101855.47;4968921;28;20030;-69
2024/01/13 06:07:35;;;;;;;7.35;2.60;;;;;;;1.43;100.00;101862.44;4969214;28;20117;-69
2024/01/13 06:10:01;;;;;;;5.90;3.00;;;;;;;1.42;100.00;101852.84;4964754;28;20043;-69
2024/01/13 06:12:28;;;;;;;4.88;2.58;;;;;;;1.43;100.00;101849.22;4984668;28;20034;-70
2024/01/13 06:14:55;;;;;;;5.57;3.03;;;;;;;1.42;100.00;101851.03;4979168;28;20117;-69
2024/01/13 06:17:21;;;;;;;6.05;3.08;;;;;;;1.42;100.00;101850.19;4967429;28;20034;-70
2024/01/13 06:19:46;;;;;;;5.82;2.63;;;;;;;1.40;100.00;101837.19;5005342;22;20049;-75
2024/01/13 06:22:13;;;;;;;7.05;3.50;;;;;;;1.40;100.00;101841.66;5026535;28;20037;-74
2024/01/13 06:24:45;;;;;;;9.27;3.42;;;;;;;1.39;100.00;101845.31;5027905;28;20080;-75
2024/01/13 06:27:16;;;;;;;7.68;3.90;;;;;;;1.43;100.00;101843.94;5028002;28;20043;-75
2024/01/13 06:29:48;;;;;;;7.75;3.60;;;;;;;1.43;100.00;101841.31;5030580;28;20048;-76
2024/01/13 06:32:18;;;;;;;7.97;3.83;;;;;;;1.42;100.00;101840.47;5013670;28;20092;-75
2024/01/13 06:34:44;;;;;;;8.25;3.63;;;;;;;1.44;100.00;101833.19;5028256;28;20045;-75
2024/01/13 06:37:10;;;;;;;9.00;3.83;;;;;;;1.43;100.00;101823.66;5001397;28;20032;-76
2024/01/13 06:40:02;;;;;;;;;;;;;;;1.44;100.00;101808.63;5048443;28;20051;-74
2024/01/13 06:42:30;;;;;;;8.73;4.25;;;;;;;1.45;100.00;101815.53;5047608;28;20409;-74
2024/01/13 06:44:57;;;;;;;7.35;3.25;;;;;;;1.45;100.00;101802.34;5026850;28;20699;-75
2024/01/13 06:47:25;;;;;;;7.40;3.03;;;;;;;1.45;100.00;101791.78;5013567;28;20418;-75
2024/01/13 06:49:56;;;;;;;7.25;2.95;;;;;;;1.45;100.00;101778.59;5027810;28;20052;-75
2024/01/13 06:52:24;;;;;;;8.95;3.30;;;;;;;1.46;100.00;101772.28;5028774;28;20748;-75
2024/01/13 06:57:43;;;;;;;4.90;2.55;;;;;;;1.44;100.00;101753.19;5033306;28;20047;-74
2024/01/13 07:00:12;;;;;;;6.97;3.03;;;;;;;1.44;100.00;101740.81;5012914;28;20040;-74
2024/01/13 07:02:46;;;;;;;8.45;2.25;;;;;;;1.44;100.00;101734.72;5029857;28;20106;-75
2024/01/13 07:05:14;;;;;;;5.75;3.05;;;;;;;1.44;100.00;101727.63;5045135;28;20037;-77
2024/01/13 07:07:42;;;;;;;5.05;2.70;;;;;;;1.44;100.00;101740.00;5026377;28;20127;-75
2024/01/13 07:10:12;;;;;;;9.60;3.15;;;;;;;1.46;100.00;101735.34;5011025;28;20088;-75
2024/01/13 07:12:47;;;;;;;4.82;2.42;;;;;;;1.44;100.00;101753.19;4996627;28;20137;-75
2024/01/13 07:15:15;;;;;;;3.90;2.60;;;;;;;1.46;100.00;101745.91;5037388;28;20104;-75
2024/01/13 07:17:41;;;;;;;4.15;2.03;;;;;;;1.47;100.00;101747.53;5009753;28;20053;-76
2024/01/13 07:20:07;;;;;;;3.83;2.10;;;;;;;1.48;100.00;101738.59;5041287;28;20650;-76
2024/01/13 07:22:34;;;;;;;3.15;1.63;;;;;;;1.48;100.00;101747.34;5027285;28;20049;-77
2024/01/13 07:24:59;;;;;;;3.95;1.80;;;;;;;1.49;100.00;101745.50;5011391;28;20565;-75
2024/01/13 07:27:30;;;;;;;6.93;1.73;;;;;;;1.51;100.00;101749.63;5022725;28;20029;-78
2024/01/13 07:29:59;;;;;;;3.47;1.48;;;;;;;1.50;100.00;101747.19;5015427;28;20045;-77
2024/01/13 07:32:25;;;;;;;5.63;1.58;;;;;;;1.54;100.00;101743.16;5020908;28;20037;-73
2024/01/13 07:34:57;;;;;;;3.03;1.70;;;;;;;1.53;100.00;101744.16;5026066;28;20587;-75
2024/01/13 07:37:23;;;;;;;7.60;1.85;;;;;;;1.53;100.00;101734.41;5014180;28;20318;-76
2024/01/13 07:39:50;;;;;;;4.28;1.67;;;;;;;1.54;100.00;101719.38;4998503;28;20039;-76
2024/01/13 07:42:20;;;;;;;3.05;1.55;;;;;;;1.49;100.00;101708.56;5039441;28;20044;-76
2024/01/13 07:44:47;;;;;;;2.78;1.60;;;;;;;1.53;100.00;101720.41;5031271;28;20028;-75
2024/01/13 07:47:15;;;;;;;4.10;2.15;;;;;;;1.57;100.00;101719.03;5012121;28;20505;-76
2024/01/13 07:49:42;;;;;;;4.35;1.33;;;;;;;1.57;100.00;101708.47;5031185;28;20702;-76
2024/01/13 07:52:10;;;;;;;2.95;1.77;;;;;;;1.58;100.00;101707.47;5047423;28;20105;-75
2024/01/13 07:54:39;;;;;;;3.20;1.60;;;;;;;1.59;100.00;101703.81;5018445;28;20051;-74
2024/01/13 07:57:07;;;;;;;4.88;1.70;;;;;;;1.58;100.00;101710.09;5031004;28;20028;-75
2024/01/13 07:59:35;;;;;;;3.22;1.35;;;;;;;1.58;100.00;101713.56;5014892;28;20064;-77
2024/01/13 08:02:05;;;;;;;2.67;1.27;;;;;;;1.61;100.00;101707.06;5013561;28;20049;-77
2024/01/13 08:04:36;;;;;;;2.30;1.20;;;;;;;1.65;100.00;101700.44;5028812;28;20041;-77
2024/01/13 08:07:05;;;;;;;2.95;1.20;;;;;;;1.60;100.00;101679.84;5030345;28;20123;-78
2024/01/13 08:09:31;;;;;;;2.35;1.45;;;;;;;1.60;100.00;101676.41;5013225;28;20044;-77
2024/01/13 08:11:57;;;;;;;2.28;1.42;;;;;;;1.61;100.00;101675.38;4998735;28;20036;-75
2024/01/13 08:14:28;;;;;;;2.67;1.30;;;;;;;1.61;100.00;101680.66;4996139;28;20055;-79
2024/01/13 08:16:54;;;;;;;2.47;1.20;;;;;;;1.63;100.00;101665.47;5031748;28;20087;-75
2024/01/13 08:19:19;;;;;;;2.90;1.60;;;;;;;1.67;100.00;101665.91;5018533;28;20033;-76
2024/01/13 08:21:45;;;;;;;2.35;1.25;;;;;;;1.64;100.00;101657.38;5039244;28;20098;-76
2024/01/13 08:24:11;;;;;;;2.42;1.50;;;;;;;1.69;100.00;101667.34;5016835;28;20039;-80
2024/01/13 08:26:39;;;;;;;2.30;1.65;;;;;;;1.69;100.00;101669.16;5014564;28;20033;-78
2024/01/13 08:29:10;;;;;;;4.20;1.50;;;;;;;1.69;100.00;101662.06;5013157;28;20077;-75
2024/01/13 08:31:35;;;;;;;2.42;1.42;;;;;;;1.68;100.00;101647.22;5013657;28;20068;-78
2024/01/13 08:34:02;;;;;;;4.25;1.33;;;;;;;1.68;100.00;101649.88;5044360;28;20033;-75
2024/01/13 08:36:27;;;;;;;5.72;1.35;;;;;;;1.68;100.00;101638.50;5010197;28;20091;-77
2024/01/13 08:38:57;;;;;;;2.10;1.02;;;;;;;1.67;100.00;101624.47;5031406;28;20028;-75
2024/01/13 08:41:26;;;;;;;1.95;1.20;;;;;;;1.66;100.00;101614.91;4999161;28;20783;-76
2024/01/13 08:43:52;;;;;;;2.28;1.33;;;;;;;1.70;100.00;101626.75;5028947;28;20028;-78
2024/01/13 08:46:17;;;;;;;5.57;1.95;;;;;;;1.70;100.00;101629.38;5033144;28;20060;-77
2024/01/13 08:48:43;;;;;;;2.65;1.25;;;;;;;1.70;100.00;101633.84;5013475;28;20126;-77
2024/01/13 08:51:09;;;;;;;3.17;1.60;;;;;;;1.72;100.00;101616.81;5046002;28;20119;-79
2024/01/13 08:53:35;;;;;;;2.95;1.48;;;;;;;1.72;100.00;101624.72;4994739;28;20115;-79
2024/01/13 08:56:01;;;;;;;2.45;1.40;;;;;;;1.73;100.00;101626.34;5027027;28;20029;-78
2024/01/13 08:58:26;;;;;;;2.50;1.45;;;;;;;1.76;100.00;101631.28;5011480;28;20076;-79
2024/01/13 09:00:54;;;;;;;2.92;1.90;;;;;;;1.76;100.00;101630.44;5012961;28;20765;-77
2024/01/13 09:03:21;;;;;;;4.25;2.10;;;;;;;1.79;100.00;101630.88;5045454;28;20124;-78
2024/01/13 09:05:47;;;;;;;2.90;1.75;;;;;;;1.78;100.00;101617.88;5016876;28;20071;-80
2024/01/13 09:08:14;;;;;;;3.78;2.10;;;;;;;1.84;100.00;101623.22;5029382;28;20037;-76
2024/01/13 09:10:42;;;;;;;3.95;1.50;;;;;;;1.84;100.00;101627.69;5016123;28;20074;-78
2024/01/13 09:13:09;;;;;;;3.42;1.70;;;;;;;1.85;100.00;101611.63;5035664;28;20101;-75
2024/01/13 09:15:37;;;;;;;2.92;1.48;;;;;;;1.89;100.00;101614.69;5034876;28;20474;-79
2024/01/13 09:18:04;;;;;;;5.20;1.50;;;;;;;1.91;100.00;101621.44;5034661;28;20069;-77
2024/01/13 09:20:30;;;;;;;3.45;1.90;;;;;;;1.95;100.00;101621.06;5036349;28;20072;-76
2024/01/13 09:22:56;;;;;;;4.57;1.60;;;;;;;1.95;100.00;101618.41;5052492;28;20545;-76
2024/01/13 09:25:22;;;;;;;2.88;1.73;;;;;;;1.96;100.00;101617.41;5023053;28;20033;-77
2024/01/13 09:27:48;;;;;;;2.20;1.30;;;;;;;1.97;100.00;101611.13;5036427;28;20051;-75
2024/01/13 09:30:15;;;;;;;4.47;1.60;;;;;;;1.96;100.00;101609.47;5013965;28;20044;-75
2024/01/13 09:32:42;;;;;;;5.35;1.30;;;;;;;1.95;100.00;101592.00;5037583;28;20165;-79
2024/01/13 09:35:08;;;;;;;2.45;1.48;;;;;;;1.99;100.00;101593.25;5011485;28;20115;-76
2024/01/13 09:37:35;;;;;;;3.53;1.38;;;;;;;1.96;100.00;101581.22;5017420;28;20143;-80
2024/01/13 09:40:04;;;;;;;2.67;1.20;;;;;;;2.00;100.00;101589.59;5015503;28;20037;-77
2024/01/13 09:42:39;;;;;;;2.90;1.30;;;;;;;1.98;100.00;101581.06;5030164;28;20083;-75
2024/01/13 09:45:07;;;;;;;2.58;1.20;;;;;;;1.98;100.00;101578.41;5013952;28;20676;-77
2024/01/13 09:47:32;;;;;;;1.63;1.00;;;;;;;1.99;100.00;101587.97;5013614;28;20040;-75
2024/01/13 09:49:58;;;;;;;2.50;1.02;;;;;;;1.99;100.00;101587.97;4997170;28;20035;-74
2024/01/13 09:52:25;;;;;;;1.88;1.20;;;;;;;2.00;100.00;101584.31;5011429;28;20040;-79
2024/01/13 09:54:57;;;;;;;1.88;1.13;;;;;;;2.01;100.00;101581.47;5045351;28;20025;-75
2024/01/13 09:57:25;;;;;;;2.83;1.27;;;;;;;2.00;100.00;101571.09;5046946;28;20129;-75
2024/01/13 09:59:52;;;;;;;1.73;0.82;;;;;;;2.01;100.00;101576.19;5034313;28;20028;-76
2024/01/13 10:02:20;;;;;;;1.77;1.27;;;;;;;2.02;100.00;101569.06;5011680;28;20048;-78
2024/01/13 10:04:45;;;;;;;2.45;1.17;;;;;;;2.00;100.00;101565.81;5028325;28;20490;-78
2024/01/13 10:07:14;;;;;;;2.25;1.10;;;;;;;1.99;100.00;101557.09;4996133;28;20041;-81
2024/01/13 10:09:39;;;;;;;3.22;0.93;;;;;;;1.99;100.00;101566.84;5031143;28;20021;-77
2024/01/13 10:12:07;;;;;;;2.30;1.27;;;;;;;2.01;100.00;101564.81;5045859;28;20028;-77
2024/01/13 10:14:36;;;;;;;1.90;1.20;;;;;;;2.02;100.00;101555.88;5014224;28;20037;-76
2024/01/13 10:17:03;;;;;;;3.97;1.40;;;;;;;2.02;100.00;101555.88;5036127;28;20036;-75
2024/01/13 10:19:29;;;;;;;2.10;1.50;;;;;;;2.03;100.00;101554.84;5030022;28;20132;-76
2024/01/13 10:21:55;;;;;;;2.42;1.40;;;;;;;2.00;100.00;101536.75;5015617;28;20035;-75
2024/01/13 10:24:23;;;;;;;2.42;1.60;;;;;;;1.99;100.00;101540.41;5025352;28;20033;-76
2024/01/13 10:26:49;;;;;;;2.10;1.40;;;;;;;1.99;100.00;101533.31;5034350;28;20032;-75
2024/01/13 10:29:15;;;;;;;1.95;1.20;;;;;;;2.03;100.00;101531.06;5026527;28;20029;-74
2024/01/13 10:31:41;;;;;;;2.42;1.23;;;;;;;2.06;100.00;101512.22;4997637;28;20527;-75
2024/01/13 10:34:12;;;;;;;2.72;1.50;;;;;;;2.08;100.00;101515.47;5030262;28;20421;-75
2024/01/13 10:36:38;;;;;;;2.13;1.60;;;;;;;2.10;100.00;101518.72;5033379;28;20043;-76
2024/01/13 10:39:04;;;;;;;2.75;1.42;;;;;;;2.08;100.00;101508.34;5029702;28;20033;-75
2024/01/13 10:41:32;;;;;;;2.97;1.60;;;;;;;2.09;100.00;101498.59;5016676;28;20047;-75
2024/01/13 10:44:03;;;;;;;3.22;1.50;;;;;;;2.10;100.00;101495.78;5016079;28;20044;-75
2024/01/13 10:46:30;;;;;;;3.90;2.08;;;;;;;2.11;100.00;101480.75;5026426;28;20394;-75
2024/01/13 10:49:02;;;;;;;2.90;1.50;;;;;;;2.09;100.00;101474.81;5029008;28;20043;-74
2024/01/13 10:51:37;;;;;;;2.85;1.80;;;;;;;2.10;100.00;101465.88;5036617;28;20037;-75
2024/01/13 10:54:04;;;;;;;2.25;1.42;;;;;;;2.17;100.00;101464.09;5022182;28;20028;-76
2024/01/13 10:56:31;;;;;;;5.28;2.10;;;;;;;2.17;100.00;101464.09;5019522;28;20047;-74
2024/01/13 10:58:58;;;;;;;3.63;1.40;;;;;;;2.19;100.00;101454.16;5020633;28;20123;-77
2024/01/13 11:01:26;;;;;;;2.85;1.63;;;;;;;2.22;100.00;101448.44;5040520;28;20048;-76
2024/01/13 11:03:54;;;;;;;2.28;1.30;;;;;;;2.21;100.00;101454.75;5013318;28;20048;-75
2024/01/13 11:06:23;;;;;;;4.10;1.95;;;;;;;2.22;100.00;101437.88;5012393;28;20127;-76
2024/01/13 11:08:51;;;;;;;3.92;1.60;;;;;;;2.23;100.00;101439.50;5052859;28;20474;-76
2024/01/13 11:11:24;;;;;;;3.00;1.50;;;;;;;2.24;100.00;101433.22;5040076;28;20040;-78
2024/01/13 11:14:05;;;;;;;1.98;1.20;;;;;;;2.29;100.00;101437.91;5027000;28;20041;-78
2024/01/13 11:16:33;;;;;;;1.85;1.30;;;;;;;2.29;100.00;101425.50;5034461;28;20071;-77
2024/01/13 11:19:00;;;;;;;1.60;1.00;;;;;;;2.31;100.00;101427.97;5033438;28;20029;-75
2024/01/13 11:21:32;;;;;;;1.98;1.20;;;;;;;2.31;100.00;101418.22;5023229;28;20109;-76
2024/01/13 11:24:11;;;;;;;1.92;1.00;;;;;;;2.36;100.00;101412.31;5022251;28;20103;-77
2024/01/13 11:26:38;;;;;;;2.90;1.20;;;;;;;2.36;100.00;101399.09;5022549;28;20043;-78
2024/01/13 11:29:28;;;;;;;1.88;1.08;;;;;;;2.36;100.00;101384.03;5004794;28;20052;-75